Time;durP1;ratioP1;P1;durP2;ratioP2;P2;SDS_P1;SDS_P2;PMS_P1;PMS_P2;Temp;Humidity;BMP_temperature;BMP_pressure;BME280_temperature;BME280_humidity;BME280_pressure;Samples;Min_cycle;Max_cycle;Signal;HPM_P1;HPM_P2
2021/03/13 00:08:05;;;;;;;40.83;18.42;;;;;;;0.31;100.00;99547.78;20893474;28;23091;-67
2021/03/13 00:18:06;;;;;;;41.60;17.70;;;;;;;0.29;100.00;99536.47;20899480;28;20281;-67
2021/03/13 00:28:08;;;;;;;36.87;16.67;;;;;;;0.20;100.00;99523.69;20907189;28;20243;-67
2021/03/13 00:38:09;;;;;;;35.03;16.00;;;;;;;0.11;100.00;99523.16;20907971;28;20676;-67
2021/03/13 00:48:10;;;;;;;29.50;13.93;;;;;;;0.01;100.00;99501.59;20907113;28;20216;-66
2021/03/13 00:58:10;;;;;;;33.47;14.87;;;;;;;-0.10;100.00;99488.00;20906080;28;20212;-63
2021/03/13 01:08:11;;;;;;;41.10;15.52;;;;;;;-0.15;100.00;99484.69;20905475;28;20215;-65
2021/03/13 01:18:11;;;;;;;36.00;15.43;;;;;;;-0.18;100.00;99469.06;20904871;28;20475;-65
2021/03/13 01:28:12;;;;;;;33.10;14.75;;;;;;;-0.16;100.00;99465.50;20866608;28;20224;-66
2021/03/13 01:38:12;;;;;;;36.17;14.77;;;;;;;-0.08;100.00;99455.59;20903090;28;20211;-63
2021/03/13 01:48:13;;;;;;;33.93;16.13;;;;;;;0.04;100.00;99443.81;20902407;28;20224;-65
2021/03/13 01:58:13;;;;;;;28.03;13.40;;;;;;;0.03;100.00;99431.59;20901732;28;20304;-64
2021/03/13 02:08:17;;;;;;;27.87;13.60;;;;;;;-0.01;100.00;99444.00;20900774;28;20223;-62
2021/03/13 02:18:38;;;;;;;26.20;13.13;;;;;;;-0.07;100.00;99427.59;20900149;28;20731;-64
2021/03/13 02:28:46;;;;;;;20.87;11.83;;;;;;;-0.03;100.00;99416.09;20897910;28;20243;-62
2021/03/13 02:38:50;;;;;;;22.83;11.13;;;;;;;0.07;100.00;99403.50;20897772;28;20277;-62
2021/03/13 02:48:50;;;;;;;20.83;12.27;;;;;;;0.11;100.00;99403.34;20897954;28;20246;-63
2021/03/13 02:58:54;;;;;;;27.93;14.33;;;;;;;0.09;100.00;99399.91;20895892;28;20219;-61
2021/03/13 03:08:56;;;;;;;24.57;12.83;;;;;;;0.10;100.00;99393.78;20896390;28;20219;-61
2021/03/13 03:18:58;;;;;;;28.23;12.87;;;;;;;0.14;100.00;99369.13;20894625;28;20220;-61
2021/03/13 03:28:59;;;;;;;22.30;12.93;;;;;;;0.27;100.00;99352.00;20894139;28;20807;-61
2021/03/13 03:39:00;;;;;;;27.40;12.87;;;;;;;0.42;100.00;99365.47;20895123;28;20219;-61
2021/03/13 03:49:03;;;;;;;19.30;10.57;;;;;;;0.61;100.00;99355.94;20894631;28;20244;-62
2021/03/13 03:59:03;;;;;;;20.47;10.77;;;;;;;0.87;100.00;99347.03;20909347;28;20231;-66
2021/03/13 04:09:06;;;;;;;19.63;10.93;;;;;;;1.12;100.00;99323.25;20908630;28;20613;-66
2021/03/13 04:19:06;;;;;;;18.37;10.57;;;;;;;1.38;100.00;99307.22;20907928;28;20710;-67
2021/03/13 04:29:07;;;;;;;17.37;9.30;;;;;;;1.52;100.00;99278.56;20906192;28;20307;-67
2021/03/13 04:39:08;;;;;;;15.17;8.93;;;;;;;1.55;100.00;99282.84;20908005;28;20715;-66
2021/03/13 04:49:08;;;;;;;19.37;9.80;;;;;;;1.62;100.00;99268.50;20889050;28;20230;-66
2021/03/13 04:59:09;;;;;;;14.37;8.73;;;;;;;1.71;100.00;99263.69;20905262;28;20216;-66
2021/03/13 05:09:09;;;;;;;14.03;8.57;;;;;;;1.92;100.00;99245.22;20903690;28;20504;-66
2021/03/13 05:19:09;;;;;;;16.53;9.40;;;;;;;2.22;100.00;99241.16;20904871;28;20548;-65
2021/03/13 05:29:10;;;;;;;17.70;10.20;;;;;;;2.58;100.00;99235.03;20891247;28;20240;-64
2021/03/13 05:39:11;;;;;;;16.30;10.53;;;;;;;2.72;100.00;99258.91;20872941;28;20215;-64
2021/03/13 05:49:12;;;;;;;16.73;9.88;;;;;;;2.83;100.00;99260.09;20828867;28;21399;-64
2021/03/13 05:59:13;;;;;;;18.00;10.90;;;;;;;3.01;100.00;99255.69;20819046;28;20248;-63
2021/03/13 06:09:14;;;;;;;21.00;11.23;;;;;;;3.25;100.00;99285.22;20818372;28;20232;-62
2021/03/13 06:19:20;;;;;;;19.57;12.50;;;;;;;3.43;100.00;99293.97;20816198;28;20297;-61
2021/03/13 06:29:22;;;;;;;18.43;10.90;;;;;;;3.63;100.00;99328.06;20837591;28;20510;-61
2021/03/13 06:39:39;;;;;;;17.17;10.73;;;;;;;3.55;100.00;99324.97;20884933;28;20235;-61
2021/03/13 06:49:40;;;;;;;21.07;12.07;;;;;;;3.31;100.00;99357.84;20863427;28;20317;-58
2021/03/13 06:59:46;;;;;;;15.90;10.53;;;;;;;3.09;100.00;99351.03;20814651;28;20747;-61
2021/03/13 07:09:59;;;;;;;16.37;9.57;;;;;;;2.77;100.00;99368.41;20853504;28;20287;-61
2021/03/13 07:20:00;;;;;;;10.30;7.10;;;;;;;2.77;100.00;99357.00;20896062;28;20217;-60
2021/03/13 07:30:01;;;;;;;10.67;7.90;;;;;;;2.76;100.00;99342.13;20893728;28;20224;-60
2021/03/13 07:40:02;;;;;;;11.50;7.83;;;;;;;3.17;100.00;99342.72;20893683;28;20251;-59
2021/03/13 07:50:03;;;;;;;11.60;8.27;;;;;;;3.73;100.00;99339.00;20893433;28;20825;-58
2021/03/13 08:00:05;;;;;;;14.35;11.98;;;;;;;4.82;100.00;99361.25;20854781;28;20428;-61
2021/03/13 08:10:06;;;;;;;8.90;8.00;;;;;;;4.57;100.00;99362.59;20893516;28;20223;-58
2021/03/13 08:39:14;;;;;;;7.53;5.77;;;;;;;4.93;100.00;99337.69;20691841;27;7884765;-60
2021/03/13 08:49:23;;;;;;;6.90;6.00;;;;;;;5.21;100.00;99321.94;20964959;28;20313;-63
2021/03/13 08:59:24;;;;;;;7.43;5.93;;;;;;;5.96;100.00;99318.31;20965517;28;20219;-61
2021/03/13 09:09:27;;;;;;;9.70;5.30;;;;;;;6.66;100.00;99308.59;20964497;28;20783;-62
2021/03/13 09:19:27;;;;;;;6.57;5.53;;;;;;;7.27;100.00;99309.88;20963546;28;20219;-66
2021/03/13 09:29:33;;;;;;;6.37;5.27;;;;;;;7.50;95.33;99290.59;20965092;28;20771;-66
2021/03/13 09:39:34;;;;;;;5.77;5.00;;;;;;;7.58;96.03;99298.06;21027027;28;20712;-62
2021/03/13 09:49:49;;;;;;;6.30;5.50;;;;;;;7.90;91.88;99301.13;20967720;28;20222;-58
2021/03/13 09:59:57;;;;;;;6.20;5.60;;;;;;;8.27;93.87;99288.78;20979040;28;20213;-57
2021/03/13 10:10:02;;;;;;;7.77;6.60;;;;;;;8.58;92.74;99287.44;20942263;28;20226;-56
2021/03/13 10:20:11;;;;;;;6.97;5.50;;;;;;;9.31;88.54;99287.31;20972776;28;20219;-56
2021/03/13 10:30:13;;;;;;;5.73;5.20;;;;;;;9.75;82.47;99284.78;20948111;28;20250;-57
2021/03/13 10:40:35;;;;;;;6.40;5.10;;;;;;;9.94;74.67;99267.34;20931814;28;20821;-56
2021/03/13 10:50:42;;;;;;;5.23;4.50;;;;;;;9.96;79.98;99249.44;20944258;28;20254;-56
2021/03/13 11:00:42;;;;;;;8.93;6.30;;;;;;;10.44;77.36;99274.88;20970037;28;20216;-61
2021/03/13 11:10:43;;;;;;;8.93;5.30;;;;;;;9.84;73.53;99253.91;20955571;28;20222;-61
2021/03/13 11:20:44;;;;;;;4.50;4.03;;;;;;;9.94;79.24;99260.19;20966262;28;20232;-68
2021/03/13 11:30:47;;;;;;;6.63;4.13;;;;;;;10.71;75.35;99250.47;20959841;28;20215;-59
2021/03/13 11:40:47;;;;;;;4.10;3.43;;;;;;;11.22;69.19;99198.22;20957355;28;20212;-63
2021/03/13 11:50:49;;;;;;;4.07;3.20;;;;;;;11.11;68.65;99234.66;20966460;28;20291;-56
2021/03/13 12:00:51;;;;;;;5.17;4.67;;;;;;;10.85;67.68;99222.66;20947244;28;20250;-58
2021/03/13 12:10:51;;;;;;;4.60;3.27;;;;;;;10.71;67.27;99205.09;20967285;28;20218;-62
2021/03/13 12:20:52;;;;;;;3.80;2.83;;;;;;;10.95;67.76;99164.84;20946967;28;20243;-58
2021/03/13 12:30:52;;;;;;;3.80;2.90;;;;;;;11.33;68.08;99172.28;20947355;28;20466;-58
2021/03/13 12:40:53;;;;;;;5.03;3.17;;;;;;;11.30;65.55;99153.00;20948890;28;20239;-62
2021/03/13 12:50:54;;;;;;;3.00;2.17;;;;;;;11.38;64.95;99142.50;20962522;28;20229;-70
2021/03/13 13:00:55;;;;;;;3.40;2.47;;;;;;;11.77;63.99;99133.72;20954725;28;20237;-59
2021/03/13 13:10:55;;;;;;;2.90;1.87;;;;;;;12.36;64.98;99108.78;20937142;28;20592;-68
2021/03/13 13:20:56;;;;;;;4.40;3.10;;;;;;;12.56;62.64;99118.50;20970482;28;20308;-58
2021/03/13 13:30:56;;;;;;;4.70;3.67;;;;;;;12.24;60.61;99107.22;20960958;28;20478;-58
2021/03/13 13:40:58;;;;;;;2.83;2.15;;;;;;;11.78;59.84;99084.63;20949759;28;20272;-58
2021/03/13 13:51:04;;;;;;;2.40;1.83;;;;;;;11.40;62.31;99063.09;20935227;28;20228;-58
2021/03/13 14:01:04;;;;;;;3.80;2.53;;;;;;;11.08;62.40;99052.53;20949959;28;20233;-58
2021/03/13 14:11:05;;;;;;;2.80;2.30;;;;;;;10.84;65.38;99028.81;20953158;28;20231;-63
2021/03/13 14:21:06;;;;;;;2.83;2.13;;;;;;;10.89;65.06;99026.56;20970690;28;20222;-70
2021/03/13 14:31:07;;;;;;;2.03;1.77;;;;;;;10.73;63.87;99015.56;20956937;28;20226;-75
2021/03/13 14:41:09;;;;;;;3.67;2.30;;;;;;;10.33;63.53;99000.25;20937213;28;20234;-64
2021/03/13 14:51:12;;;;;;;3.00;2.03;;;;;;;10.20;66.07;99009.41;20928645;28;20227;-56
2021/03/13 15:01:13;;;;;;;3.90;3.00;;;;;;;10.13;66.82;99010.88;20967061;28;20244;-71
2021/03/13 15:11:15;;;;;;;3.87;3.20;;;;;;;9.90;66.21;98991.47;20953201;28;20242;-60
2021/03/13 15:21:16;;;;;;;3.77;2.73;;;;;;;9.85;66.80;98988.31;20940241;28;20210;-57
2021/03/13 15:31:17;;;;;;;3.90;2.90;;;;;;;9.72;67.20;98954.72;20953624;28;20726;-71
2021/03/13 15:41:17;;;;;;;4.50;3.40;;;;;;;9.56;69.81;98974.72;20960484;28;20226;-58
2021/03/13 15:51:18;;;;;;;4.37;3.50;;;;;;;9.42;69.88;98967.84;20962947;28;20806;-57
2021/03/13 16:01:19;;;;;;;6.97;3.93;;;;;;;9.32;71.54;98956.25;20934470;28;20287;-58
2021/03/13 16:11:20;;;;;;;4.40;3.33;;;;;;;9.14;71.44;98955.09;20956061;28;20452;-57
2021/03/13 16:21:20;;;;;;;5.53;3.00;;;;;;;8.97;71.77;98941.31;20913471;28;20225;-56
2021/03/13 16:31:21;;;;;;;3.53;3.10;;;;;;;8.72;72.72;98938.03;20873973;28;20284;-57
2021/03/13 16:41:21;;;;;;;3.53;2.80;;;;;;;8.40;74.27;98929.94;20827830;28;20218;-57
2021/03/13 16:51:22;;;;;;;3.17;2.40;;;;;;;8.21;74.90;98915.38;20863697;28;20226;-56
2021/03/13 17:01:24;;;;;;;3.90;3.20;;;;;;;8.02;75.36;98882.38;20862105;28;20975;-56
2021/03/13 17:11:25;;;;;;;4.00;3.53;;;;;;;8.15;75.44;98883.13;20879850;28;20263;-56
2021/03/13 17:21:26;;;;;;;6.13;3.77;;;;;;;8.23;75.10;98870.91;20869960;28;20217;-56
2021/03/13 17:31:27;;;;;;;4.57;3.57;;;;;;;8.28;75.07;98860.78;20833897;28;20225;-57
2021/03/13 17:41:27;;;;;;;4.83;4.10;;;;;;;8.19;74.83;98823.47;20871660;28;20228;-57
2021/03/13 17:51:28;;;;;;;3.60;3.20;;;;;;;8.30;75.55;98840.28;20872973;28;20764;-58
2021/03/13 18:01:28;;;;;;;5.37;3.50;;;;;;;8.29;74.84;98822.63;20811496;28;20221;-57
2021/03/13 18:11:29;;;;;;;3.57;3.27;;;;;;;8.37;74.85;98823.84;20837135;28;20240;-57
2021/03/13 18:21:30;;;;;;;4.63;2.70;;;;;;;8.33;74.47;98812.66;20888379;28;20226;-62
2021/03/13 18:31:31;;;;;;;5.13;4.00;;;;;;;8.48;75.09;98822.03;20855377;28;21008;-56
2021/03/13 18:41:31;;;;;;;4.90;3.53;;;;;;;8.53;74.91;98811.03;20854749;28;20538;-56
2021/03/13 18:51:32;;;;;;;5.17;3.30;;;;;;;8.61;74.22;98790.00;20857638;28;20218;-63
2021/03/13 19:01:33;;;;;;;4.63;3.60;;;;;;;8.74;71.94;98806.66;20856943;28;20464;-69
2021/03/13 19:11:33;;;;;;;5.63;3.40;;;;;;;8.94;72.13;98789.91;20854773;28;20430;-61
2021/03/13 19:21:34;;;;;;;6.13;4.00;;;;;;;8.85;74.31;98788.00;20853941;28;20218;-75
2021/03/13 19:31:34;;;;;;;4.60;3.60;;;;;;;8.62;75.41;98791.69;20857270;28;21026;-74
2021/03/13 19:41:35;;;;;;;5.67;3.60;;;;;;;8.52;79.16;98806.69;20840408;28;20230;-61
2021/03/13 19:51:43;;;;;;;4.60;3.27;;;;;;;8.26;80.51;98756.44;20878838;28;20513;-59
2021/03/13 20:01:44;;;;;;;4.07;3.00;;;;;;;7.84;81.05;98699.59;20834002;28;21309;-71
2021/03/13 20:11:45;;;;;;;4.33;2.70;;;;;;;8.03;81.22;98735.31;20856218;28;20375;-56
2021/03/13 20:21:46;;;;;;;3.77;2.90;;;;;;;8.01;81.16;98724.81;20869679;28;20237;-58
2021/03/13 20:31:46;;;;;;;4.07;3.20;;;;;;;8.03;79.74;98724.69;20840682;28;20228;-58
2021/03/13 20:41:54;;;;;;;5.00;3.73;;;;;;;8.10;79.42;98715.25;20860704;28;20241;-56
2021/03/13 20:51:54;;;;;;;4.87;3.00;;;;;;;8.16;78.43;98718.28;20817966;28;21893;-62
2021/03/13 21:01:55;;;;;;;5.80;3.50;;;;;;;8.24;77.84;98723.81;20869186;28;20237;-73
2021/03/13 21:11:55;;;;;;;3.87;2.93;;;;;;;8.41;75.09;98725.16;20834393;28;20243;-60
2021/03/13 21:21:56;;;;;;;5.67;3.47;;;;;;;8.58;74.63;98716.63;20867132;28;20862;-67
2021/03/13 21:31:58;;;;;;;5.30;3.33;;;;;;;8.58;74.55;98721.13;20857856;28;20321;-71
2021/03/13 21:41:58;;;;;;;4.70;3.27;;;;;;;8.60;74.86;98724.50;20853930;28;20246;-70
2021/03/13 21:51:59;;;;;;;4.40;3.50;;;;;;;8.63;74.68;98710.97;20870421;28;20235;-59
2021/03/13 22:02:00;;;;;;;5.43;3.30;;;;;;;8.59;75.55;98717.50;20876266;28;20667;-70
2021/03/13 22:12:00;;;;;;;4.57;3.23;;;;;;;8.54;73.67;98685.13;20868431;28;20327;-58
2021/03/13 22:22:01;;;;;;;4.50;3.20;;;;;;;8.56;75.16;98696.50;20867711;28;20314;-57
2021/03/13 22:32:03;;;;;;;4.30;3.13;;;;;;;8.50;74.92;98700.47;20852391;28;20766;-57
2021/03/13 22:42:04;;;;;;;3.57;2.63;;;;;;;8.53;73.13;98696.75;20766090;28;21741;-56
2021/03/13 22:52:04;;;;;;;3.43;2.53;;;;;;;8.45;72.09;98713.28;20800893;28;20262;-56
2021/03/13 23:02:05;;;;;;;3.83;2.23;;;;;;;8.29;72.73;98711.03;20790845;28;21328;-56
2021/03/13 23:12:06;;;;;;;3.03;2.40;;;;;;;8.06;71.29;98719.13;20784501;28;21251;-56
2021/03/13 23:22:07;;;;;;;3.73;2.30;;;;;;;7.86;77.96;98728.66;20774188;28;20859;-59
2021/03/13 23:32:11;;;;;;;7.97;3.70;;;;;;;7.51;79.04;98707.53;20799877;28;20224;-56
2021/03/13 23:42:11;;;;;;;5.73;2.43;;;;;;;7.13;78.71;98708.66;20873385;28;20226;-57
2021/03/13 23:52:12;;;;;;;5.68;2.88;;;;;;;6.67;79.32;98724.50;20869311;28;20284;-58
